Time;durP1;ratioP1;P1;durP2;ratioP2;P2;SDS_P1;SDS_P2;PMS_P1;PMS_P2;Temp;Humidity;BMP_temperature;BMP_pressure;BME280_temperature;BME280_humidity;BME280_pressure;Samples;Min_cycle;Max_cycle;Signal;HPM_P1;HPM_P2
2021/08/17 00:00:41;;;;;;;16.10;3.20;;;;;;;;;;5005702;28;20048;-63
2021/08/17 00:03:08;;;;;;;16.60;3.00;;;;;;;;;;4996445;28;20030;-63
2021/08/17 00:05:34;;;;;;;23.88;4.22;;;;;;;;;;4997001;28;20057;-63
2021/08/17 00:08:01;;;;;;;11.40;3.90;;;;;;;;;;5004032;28;20351;-63
2021/08/17 00:10:27;;;;;;;16.55;3.97;;;;;;;;;;4996506;28;20030;-64
2021/08/17 00:12:53;;;;;;;17.77;3.75;;;;;;;;;;5002927;28;20184;-64
2021/08/17 00:15:18;;;;;;;9.38;3.47;;;;;;;;;;4997890;28;20129;-64
2021/08/17 00:17:44;;;;;;;14.88;3.53;;;;;;;;;;4995391;28;20030;-64
2021/08/17 00:20:10;;;;;;;8.32;3.17;;;;;;;;;;5003286;28;20408;-64
2021/08/17 00:22:37;;;;;;;14.20;4.15;;;;;;;;;;4998007;28;20058;-64
2021/08/17 00:25:03;;;;;;;13.07;3.35;;;;;;;;;;4999388;28;20034;-64
2021/08/17 00:27:29;;;;;;;10.73;3.53;;;;;;;;;;4996733;28;20124;-64
2021/08/17 00:29:54;;;;;;;18.50;3.58;;;;;;;;;;4998635;28;20140;-64
2021/08/17 00:32:20;;;;;;;21.05;3.88;;;;;;;;;;4994892;28;20038;-64
2021/08/17 00:34:45;;;;;;;21.52;3.50;;;;;;;;;;4998788;28;20488;-64
2021/08/17 00:37:13;;;;;;;16.98;3.00;;;;;;;;;;5003267;28;20025;-64
2021/08/17 00:39:38;;;;;;;19.63;3.42;;;;;;;;;;5000014;28;20038;-62
2021/08/17 00:42:06;;;;;;;15.35;2.70;;;;;;;;;;4998634;28;20033;-64
2021/08/17 00:44:33;;;;;;;14.65;3.10;;;;;;;;;;4997437;28;20029;-64
2021/08/17 00:46:58;;;;;;;22.85;2.80;;;;;;;;;;4994027;28;20453;-64
2021/08/17 00:49:25;;;;;;;12.23;2.92;;;;;;;;;;4995773;28;20041;-64
2021/08/17 00:51:55;;;;;;;17.67;3.20;;;;;;;;;;4996485;28;20243;-63
2021/08/17 00:54:24;;;;;;;12.68;2.72;;;;;;;;;;4992796;28;20704;-64
2021/08/17 00:56:49;;;;;;;14.60;2.90;;;;;;;;;;5004706;28;20408;-64
2021/08/17 00:59:15;;;;;;;14.48;3.03;;;;;;;;;;4998413;28;20022;-64
2021/08/17 01:01:41;;;;;;;21.20;3.30;;;;;;;;;;4996972;28;20095;-64
2021/08/17 01:04:10;;;;;;;16.25;3.17;;;;;;;;;;4997704;28;20485;-64
2021/08/17 01:06:36;;;;;;;9.10;2.97;;;;;;;;;;4991850;28;20038;-64
2021/08/17 01:09:09;;;;;;;24.50;3.03;;;;;;;;;;4997025;28;20042;-64
2021/08/17 01:11:37;;;;;;;17.35;2.53;;;;;;;;;;5002135;28;20381;-64
2021/08/17 01:14:02;;;;;;;11.13;2.25;;;;;;;;;;4998089;28;20023;-64
2021/08/17 01:16:28;;;;;;;13.35;2.80;;;;;;;;;;4998627;28;20125;-64
2021/08/17 01:18:53;;;;;;;18.38;2.53;;;;;;;;;;4996911;28;20042;-62
2021/08/17 01:21:19;;;;;;;18.17;3.35;;;;;;;;;;4990022;28;20054;-62
2021/08/17 01:23:45;;;;;;;16.35;2.90;;;;;;;;;;4997143;28;20117;-62
2021/08/17 01:26:11;;;;;;;8.52;2.20;;;;;;;;;;5002434;28;20034;-63
2021/08/17 01:28:36;;;;;;;16.38;2.60;;;;;;;;;;5000043;28;20026;-62
2021/08/17 01:31:05;;;;;;;15.15;1.80;;;;;;;;;;4991175;28;20026;-62
2021/08/17 01:33:31;;;;;;;16.88;3.00;;;;;;;;;;4991565;28;20022;-63
2021/08/17 01:35:57;;;;;;;13.40;2.08;;;;;;;;;;5000112;28;20411;-63
2021/08/17 01:38:23;;;;;;;14.93;2.08;;;;;;;;;;4994455;28;20054;-63
2021/08/17 01:40:49;;;;;;;13.85;2.03;;;;;;;;;;5001654;28;20545;-63
2021/08/17 01:43:16;;;;;;;9.52;1.75;;;;;;;;;;4999653;28;20116;-63
2021/08/17 01:45:43;;;;;;;14.07;1.88;;;;;;;;;;5000485;28;20252;-63
2021/08/17 01:48:11;;;;;;;7.07;1.65;;;;;;;;;;5000542;28;20085;-63
2021/08/17 01:50:36;;;;;;;9.90;1.98;;;;;;;;;;4994659;28;20042;-63
2021/08/17 01:53:02;;;;;;;16.00;2.60;;;;;;;;;;4993936;28;20587;-63
2021/08/17 01:55:28;;;;;;;7.30;2.00;;;;;;;;;;4996567;28;20034;-63
2021/08/17 01:57:53;;;;;;;12.10;1.67;;;;;;;;;;5001987;28;20403;-63
2021/08/17 02:00:19;;;;;;;18.95;2.45;;;;;;;;;;4996403;28;20515;-63
2021/08/17 02:02:44;;;;;;;13.43;2.58;;;;;;;;;;4993028;28;20036;-63
2021/08/17 02:05:10;;;;;;;7.95;1.77;;;;;;;;;;4997043;28;20353;-63
2021/08/17 02:07:36;;;;;;;17.63;2.83;;;;;;;;;;4998749;28;20045;-63
2021/08/17 02:10:04;;;;;;;12.10;1.58;;;;;;;;;;4992697;28;20100;-63
2021/08/17 02:12:30;;;;;;;18.55;1.90;;;;;;;;;;4997708;28;20109;-63
2021/08/17 02:14:55;;;;;;;15.30;2.42;;;;;;;;;;4993726;28;20638;-63
2021/08/17 02:17:21;;;;;;;7.93;1.45;;;;;;;;;;4998794;28;20603;-63
2021/08/17 02:19:46;;;;;;;8.90;1.80;;;;;;;;;;4996575;28;20405;-63
2021/08/17 02:22:12;;;;;;;10.15;1.77;;;;;;;;;;5001042;28;20069;-63
2021/08/17 02:24:37;;;;;;;6.25;1.45;;;;;;;;;;5000145;28;20037;-63
2021/08/17 02:27:03;;;;;;;10.90;1.50;;;;;;;;;;4999487;28;20437;-63
2021/08/17 02:29:29;;;;;;;15.77;1.75;;;;;;;;;;4995058;28;20034;-63
2021/08/17 02:31:54;;;;;;;15.18;1.63;;;;;;;;;;4999966;28;20357;-62
2021/08/17 02:34:20;;;;;;;10.02;1.65;;;;;;;;;;4997106;28;20125;-62
2021/08/17 02:36:45;;;;;;;13.52;1.95;;;;;;;;;;4994272;28;20097;-63
2021/08/17 02:39:11;;;;;;;9.40;1.77;;;;;;;;;;4999692;28;20061;-63
2021/08/17 02:41:36;;;;;;;7.25;1.83;;;;;;;;;;4998976;28;20036;-63
2021/08/17 02:44:02;;;;;;;6.82;1.73;;;;;;;;;;4999574;28;20486;-62
2021/08/17 02:46:27;;;;;;;9.55;1.70;;;;;;;;;;4994757;28;20032;-63
2021/08/17 02:48:53;;;;;;;13.60;2.03;;;;;;;;;;4998471;28;20092;-62
2021/08/17 02:51:18;;;;;;;12.95;2.10;;;;;;;;;;5001864;28;20037;-64
2021/08/17 02:53:44;;;;;;;18.75;2.15;;;;;;;;;;4992680;28;20493;-62
2021/08/17 02:56:09;;;;;;;15.90;1.85;;;;;;;;;;4998359;28;20035;-63
2021/08/17 02:58:35;;;;;;;13.07;2.10;;;;;;;;;;5000087;28;20069;-63
2021/08/17 03:01:00;;;;;;;11.73;1.77;;;;;;;;;;4997523;28;20409;-62
2021/08/17 03:03:26;;;;;;;10.32;2.00;;;;;;;;;;4997616;28;20041;-63
2021/08/17 03:05:51;;;;;;;14.95;3.00;;;;;;;;;;4996808;28;20404;-63
2021/08/17 03:08:17;;;;;;;9.07;2.47;;;;;;;;;;5001067;28;20027;-63
2021/08/17 03:10:42;;;;;;;14.55;2.33;;;;;;;;;;4997154;28;20030;-63
2021/08/17 03:13:08;;;;;;;11.43;1.98;;;;;;;;;;5000187;28;20033;-63
2021/08/17 03:15:34;;;;;;;11.93;2.30;;;;;;;;;;4996946;28;20049;-63
2021/08/17 03:18:04;;;;;;;12.93;1.88;;;;;;;;;;4995184;28;20026;-63
2021/08/17 03:20:32;;;;;;;11.70;1.77;;;;;;;;;;4999231;28;20033;-63
2021/08/17 03:22:57;;;;;;;15.38;1.65;;;;;;;;;;5000444;28;20054;-63
2021/08/17 03:25:25;;;;;;;10.30;2.08;;;;;;;;;;5001217;28;20033;-63
2021/08/17 03:27:51;;;;;;;14.00;1.90;;;;;;;;;;4991663;28;20030;-63
2021/08/17 03:30:18;;;;;;;9.52;2.13;;;;;;;;;;4999480;28;20448;-63
2021/08/17 03:32:43;;;;;;;13.55;2.40;;;;;;;;;;4997175;28;20038;-63
2021/08/17 03:35:11;;;;;;;13.75;1.65;;;;;;;;;;4996705;28;20029;-63
2021/08/17 03:37:39;;;;;;;13.40;1.90;;;;;;;;;;4994164;28;20038;-62
2021/08/17 03:40:11;;;;;;;13.43;1.58;;;;;;;;;;5002023;28;20036;-62
2021/08/17 03:42:38;;;;;;;18.95;2.78;;;;;;;;;;5000500;28;20089;-62
2021/08/17 03:45:04;;;;;;;11.45;1.92;;;;;;;;;;5003609;28;20041;-62
2021/08/17 03:47:30;;;;;;;9.57;1.83;;;;;;;;;;4997725;28;20045;-62
2021/08/17 03:49:55;;;;;;;13.63;2.35;;;;;;;;;;5005273;28;20112;-62
2021/08/17 03:52:21;;;;;;;17.63;3.13;;;;;;;;;;5003732;28;20023;-63
2021/08/17 03:54:47;;;;;;;10.43;1.83;;;;;;;;;;5001047;28;20030;-63
2021/08/17 03:57:12;;;;;;;10.48;1.67;;;;;;;;;;4998665;28;20062;-63
2021/08/17 03:59:38;;;;;;;8.77;1.80;;;;;;;;;;5002513;28;20046;-63
2021/08/17 04:02:03;;;;;;;12.00;2.35;;;;;;;;;;4998475;28;20029;-63
2021/08/17 04:04:29;;;;;;;11.18;2.13;;;;;;;;;;4997175;28;20030;-63
2021/08/17 04:06:54;;;;;;;12.05;1.95;;;;;;;;;;4995146;28;20026;-62
2021/08/17 04:09:20;;;;;;;11.80;2.10;;;;;;;;;;5003251;28;20025;-63
2021/08/17 04:11:45;;;;;;;7.78;2.05;;;;;;;;;;5002355;28;20054;-63
2021/08/17 04:14:11;;;;;;;6.63;1.73;;;;;;;;;;4999340;28;20489;-63
2021/08/17 04:16:36;;;;;;;26.60;2.67;;;;;;;;;;5000502;28;20089;-63
2021/08/17 04:19:02;;;;;;;10.88;2.10;;;;;;;;;;5002888;28;20092;-63
2021/08/17 04:21:28;;;;;;;8.30;2.60;;;;;;;;;;5002956;28;21667;-63
2021/08/17 04:23:53;;;;;;;13.63;2.60;;;;;;;;;;5003528;28;20050;-63
2021/08/17 04:26:19;;;;;;;11.15;2.17;;;;;;;;;;5006623;28;20495;-63
2021/08/17 04:28:44;;;;;;;11.18;2.47;;;;;;;;;;5004260;28;20492;-63
2021/08/17 04:31:11;;;;;;;10.02;2.33;;;;;;;;;;5002366;28;20153;-63
2021/08/17 04:33:37;;;;;;;9.07;2.67;;;;;;;;;;5002023;28;20412;-63
2021/08/17 04:36:02;;;;;;;8.20;1.92;;;;;;;;;;5004732;28;20030;-63
2021/08/17 04:38:28;;;;;;;12.65;2.63;;;;;;;;;;5002811;28;20105;-63
2021/08/17 04:40:53;;;;;;;5.57;1.95;;;;;;;;;;5003509;28;20447;-63
2021/08/17 04:43:19;;;;;;;9.50;2.15;;;;;;;;;;4995676;28;20037;-63
2021/08/17 04:45:45;;;;;;;11.25;2.33;;;;;;;;;;5005219;28;20489;-63
2021/08/17 04:48:11;;;;;;;10.73;2.03;;;;;;;;;;4995741;28;20426;-63
2021/08/17 04:50:36;;;;;;;13.82;2.50;;;;;;;;;;4997771;28;20049;-63
2021/08/17 04:53:01;;;;;;;13.70;2.22;;;;;;;;;;5001259;28;20031;-63
2021/08/17 04:55:27;;;;;;;8.82;2.05;;;;;;;;;;5001158;28;20030;-64
2021/08/17 04:57:55;;;;;;;13.50;2.75;;;;;;;;;;4999726;28;20361;-63
2021/08/17 05:00:22;;;;;;;7.82;2.00;;;;;;;;;;4997355;28;20026;-63
2021/08/17 05:02:48;;;;;;;11.55;2.80;;;;;;;;;;4993658;28;20038;-63
2021/08/17 05:05:14;;;;;;;13.20;2.42;;;;;;;;;;5003256;28;20025;-63
2021/08/17 05:07:41;;;;;;;8.15;1.73;;;;;;;;;;5002575;28;20034;-63
2021/08/17 05:10:08;;;;;;;10.90;2.00;;;;;;;;;;5002649;28;20037;-63
2021/08/17 05:12:35;;;;;;;10.30;2.10;;;;;;;;;;4996648;28;20091;-63
2021/08/17 05:15:02;;;;;;;16.85;2.65;;;;;;;;;;4998922;28;20352;-63
2021/08/17 05:17:28;;;;;;;32.72;5.80;;;;;;;;;;5000818;28;20428;-63
2021/08/17 05:19:53;;;;;;;7.72;1.70;;;;;;;;;;5000590;28;20033;-63
2021/08/17 05:22:19;;;;;;;18.67;2.50;;;;;;;;;;5004026;28;20114;-63
2021/08/17 05:24:44;;;;;;;13.95;2.70;;;;;;;;;;4997865;28;20492;-63
2021/08/17 05:27:10;;;;;;;7.88;2.50;;;;;;;;;;4996610;28;20037;-63
2021/08/17 05:29:36;;;;;;;6.00;2.13;;;;;;;;;;4997167;28;20049;-63
2021/08/17 05:32:03;;;;;;;8.27;2.08;;;;;;;;;;4998830;28;20563;-63
2021/08/17 05:34:29;;;;;;;8.50;2.25;;;;;;;;;;4994429;28;20036;-63
2021/08/17 05:36:54;;;;;;;11.10;2.40;;;;;;;;;;4999666;28;20034;-63
2021/08/17 05:39:20;;;;;;;9.45;2.35;;;;;;;;;;4998544;28;20540;-63
2021/08/17 05:41:45;;;;;;;10.10;1.95;;;;;;;;;;5002597;28;20104;-63
2021/08/17 05:44:10;;;;;;;17.65;2.28;;;;;;;;;;4994419;28;20032;-63
2021/08/17 05:46:36;;;;;;;13.25;2.58;;;;;;;;;;4995676;28;20033;-63
2021/08/17 05:49:01;;;;;;;11.85;2.33;;;;;;;;;;5002904;28;20030;-63
2021/08/17 05:51:27;;;;;;;6.90;2.00;;;;;;;;;;4997637;28;20061;-63
2021/08/17 05:53:52;;;;;;;9.50;2.20;;;;;;;;;;5001777;28;20057;-64
2021/08/17 05:56:18;;;;;;;22.63;3.42;;;;;;;;;;4992037;28;20404;-63
2021/08/17 05:58:43;;;;;;;20.88;2.72;;;;;;;;;;4998666;28;20037;-64
2021/08/17 06:01:09;;;;;;;7.00;2.80;;;;;;;;;;4998832;28;20034;-63
2021/08/17 06:03:34;;;;;;;10.98;2.33;;;;;;;;;;5000460;28;20067;-64
2021/08/17 06:06:00;;;;;;;12.43;2.28;;;;;;;;;;5004632;28;20048;-64
2021/08/17 06:08:26;;;;;;;9.98;2.20;;;;;;;;;;4992629;28;20042;-63
2021/08/17 06:10:52;;;;;;;8.60;2.33;;;;;;;;;;4998292;28;20036;-64
2021/08/17 06:13:17;;;;;;;14.23;2.75;;;;;;;;;;4992508;28;20393;-63
2021/08/17 06:15:43;;;;;;;18.23;4.10;;;;;;;;;;4994745;28;20076;-64
2021/08/17 06:18:09;;;;;;;10.25;2.42;;;;;;;;;;4992475;28;20385;-63
2021/08/17 06:20:35;;;;;;;8.55;2.55;;;;;;;;;;4997530;28;20033;-64
2021/08/17 06:23:01;;;;;;;16.52;3.13;;;;;;;;;;4998449;28;20358;-63
2021/08/17 06:25:28;;;;;;;10.77;3.72;;;;;;;;;;5001832;28;20132;-63
2021/08/17 06:27:54;;;;;;;12.90;2.55;;;;;;;;;;4992274;28;20137;-63
2021/08/17 06:30:20;;;;;;;12.52;3.20;;;;;;;;;;4992682;28;20109;-63
2021/08/17 06:32:45;;;;;;;18.08;3.08;;;;;;;;;;4998800;28;20034;-63
2021/08/17 06:35:11;;;;;;;21.75;3.25;;;;;;;;;;5000487;28;20556;-64
2021/08/17 06:37:37;;;;;;;9.70;2.53;;;;;;;;;;4999415;28;20160;-64
2021/08/17 06:40:03;;;;;;;11.98;2.70;;;;;;;;;;5003479;28;20571;-63
2021/08/17 06:42:28;;;;;;;11.15;2.90;;;;;;;;;;4994258;28;20432;-64
2021/08/17 06:44:54;;;;;;;7.07;2.67;;;;;;;;;;4994967;28;20042;-63
2021/08/17 06:47:19;;;;;;;9.68;2.67;;;;;;;;;;4996623;28;20030;-63
2021/08/17 06:49:45;;;;;;;8.50;2.42;;;;;;;;;;5000250;28;20341;-64
2021/08/17 06:52:10;;;;;;;9.57;3.45;;;;;;;;;;4992962;28;20416;-63
2021/08/17 06:54:36;;;;;;;11.98;2.80;;;;;;;;;;4999718;28;20034;-63
2021/08/17 06:57:01;;;;;;;18.13;3.05;;;;;;;;;;5003658;28;20033;-63
2021/08/17 06:59:27;;;;;;;13.65;2.42;;;;;;;;;;4989537;28;20041;-63
2021/08/17 07:01:52;;;;;;;7.90;2.78;;;;;;;;;;4997722;28;20034;-64
2021/08/17 07:04:18;;;;;;;13.48;3.50;;;;;;;;;;4998669;28;20041;-63
2021/08/17 07:06:43;;;;;;;11.93;2.33;;;;;;;;;;4997257;28;20066;-63
2021/08/17 07:09:09;;;;;;;13.68;2.80;;;;;;;;;;4999034;28;20382;-63
2021/08/17 07:11:34;;;;;;;8.93;2.55;;;;;;;;;;5002861;28;20041;-63
2021/08/17 07:14:00;;;;;;;13.45;2.60;;;;;;;;;;4999589;28;20424;-63
2021/08/17 07:16:25;;;;;;;17.50;2.83;;;;;;;;;;5004641;28;20480;-64
2021/08/17 07:18:51;;;;;;;7.95;2.60;;;;;;;;;;4998553;28;20033;-63
2021/08/17 07:21:16;;;;;;;14.57;2.63;;;;;;;;;;4998768;28;20473;-63
2021/08/17 07:23:42;;;;;;;9.20;3.70;;;;;;;;;;4999795;28;20049;-63
2021/08/17 07:26:07;;;;;;;13.60;3.15;;;;;;;;;;5002227;28;20329;-64
2021/08/17 07:28:33;;;;;;;10.82;2.63;;;;;;;;;;5000346;28;20495;-63
2021/08/17 07:30:58;;;;;;;8.15;2.03;;;;;;;;;;4995460;28;20041;-63
2021/08/17 07:33:24;;;;;;;11.45;2.08;;;;;;;;;;4999669;28;20030;-64
2021/08/17 07:35:49;;;;;;;14.10;3.10;;;;;;;;;;5004209;28;20439;-63
2021/08/17 07:38:15;;;;;;;13.63;2.50;;;;;;;;;;4995222;28;20044;-63
2021/08/17 07:40:41;;;;;;;7.97;2.55;;;;;;;;;;5000913;28;20042;-63
2021/08/17 07:43:06;;;;;;;13.05;2.85;;;;;;;;;;4994063;28;20048;-63
2021/08/17 07:45:32;;;;;;;17.83;2.97;;;;;;;;;;5000192;28;20061;-63
2021/08/17 07:47:58;;;;;;;13.27;2.42;;;;;;;;;;4998756;28;20035;-63
2021/08/17 07:50:23;;;;;;;9.93;2.80;;;;;;;;;;4997331;28;20475;-63
2021/08/17 07:52:50;;;;;;;17.50;3.05;;;;;;;;;;4996438;28;20037;-63
2021/08/17 07:55:17;;;;;;;17.13;3.10;;;;;;;;;;4999688;28;20080;-63
2021/08/17 07:57:43;;;;;;;12.65;2.95;;;;;;;;;;5001522;28;20088;-63
2021/08/17 08:00:13;;;;;;;10.00;2.58;;;;;;;;;;5002262;28;20030;-64
2021/08/17 08:02:39;;;;;;;12.98;2.92;;;;;;;;;;4995600;28;20034;-64
2021/08/17 08:05:05;;;;;;;13.88;2.97;;;;;;;;;;4994315;28;20064;-64
2021/08/17 08:07:31;;;;;;;12.50;2.97;;;;;;;;;;5001709;28;20038;-63
2021/08/17 08:09:57;;;;;;;12.93;2.80;;;;;;;;;;5001909;28;20485;-64
2021/08/17 08:12:22;;;;;;;10.85;2.70;;;;;;;;;;4996448;28;20101;-63
2021/08/17 08:14:49;;;;;;;41.33;4.18;;;;;;;;;;5004082;28;20030;-63
2021/08/17 08:17:15;;;;;;;12.02;3.00;;;;;;;;;;4998239;28;20860;-63
2021/08/17 08:19:40;;;;;;;9.40;2.83;;;;;;;;;;5001449;28;20479;-63
2021/08/17 08:22:07;;;;;;;10.40;3.05;;;;;;;;;;4997058;28;20030;-63
2021/08/17 08:24:34;;;;;;;16.02;4.00;;;;;;;;;;5000927;28;20026;-63
2021/08/17 08:26:59;;;;;;;16.42;3.40;;;;;;;;;;4994665;28;20040;-64
2021/08/17 08:29:25;;;;;;;15.32;2.70;;;;;;;;;;4996331;28;20072;-62
2021/08/17 08:31:50;;;;;;;19.67;3.35;;;;;;;;;;4997677;28;20049;-62
2021/08/17 08:34:16;;;;;;;13.60;3.30;;;;;;;;;;4998583;28;20050;-62
2021/08/17 08:36:41;;;;;;;15.18;3.78;;;;;;;;;;5000253;28;20034;-62
2021/08/17 08:39:07;;;;;;;24.17;3.92;;;;;;;;;;5001902;28;20142;-62
2021/08/17 08:41:33;;;;;;;16.17;4.47;;;;;;;;;;5010293;28;20034;-63
2021/08/17 08:43:59;;;;;;;11.20;3.33;;;;;;;;;;4998906;28;20448;-63
2021/08/17 08:46:25;;;;;;;14.43;3.90;;;;;;;;;;4995419;28;20031;-63
2021/08/17 08:48:53;;;;;;;6.57;3.05;;;;;;;;;;5001640;28;20022;-62
2021/08/17 08:51:20;;;;;;;12.45;3.20;;;;;;;;;;5005104;28;20021;-63
2021/08/17 08:53:46;;;;;;;11.55;3.42;;;;;;;;;;5002154;28;20034;-63
2021/08/17 08:56:12;;;;;;;7.57;3.40;;;;;;;;;;5001571;28;20053;-63
2021/08/17 08:58:39;;;;;;;18.25;3.72;;;;;;;;;;5004894;28;20050;-63
2021/08/17 09:01:05;;;;;;;10.57;3.55;;;;;;;;;;4999096;28;20037;-63
2021/08/17 09:03:50;;;;;;;16.58;3.20;;;;;;;;;;5000251;28;20030;-63
2021/08/17 09:06:20;;;;;;;13.32;2.97;;;;;;;;;;4996872;28;20030;-63
2021/08/17 09:08:47;;;;;;;8.32;2.80;;;;;;;;;;4996538;28;20091;-64
2021/08/17 09:11:21;;;;;;;13.07;2.88;;;;;;;;;;4994664;28;20118;-63
2021/08/17 09:13:47;;;;;;;5.95;3.00;;;;;;;;;;4993703;28;20358;-63
2021/08/17 09:16:32;;;;;;;8.43;3.00;;;;;;;;;;5002242;28;20488;-63
2021/08/17 09:18:58;;;;;;;9.52;3.05;;;;;;;;;;4994532;28;20042;-63
2021/08/17 09:21:39;;;;;;;12.45;3.13;;;;;;;;;;5006331;28;20060;-64
2021/08/17 09:24:35;;;;;;;7.97;3.10;;;;;;;;;;5000219;28;20057;-63
2021/08/17 09:27:12;;;;;;;10.70;3.50;;;;;;;;;;4990854;28;20042;-63
2021/08/17 09:29:40;;;;;;;8.90;3.17;;;;;;;;;;4998334;28;20227;-63
2021/08/17 09:32:19;;;;;;;11.02;3.42;;;;;;;;;;5000883;28;20373;-63
2021/08/17 09:34:48;;;;;;;14.63;3.15;;;;;;;;;;4993611;28;20100;-63
2021/08/17 09:37:14;;;;;;;7.40;2.72;;;;;;;;;;4995897;28;20120;-64
2021/08/17 09:39:48;;;;;;;10.35;3.13;;;;;;;;;;4997632;28;20176;-62
2021/08/17 09:42:25;;;;;;;8.73;3.17;;;;;;;;;;4998257;28;20045;-62
2021/08/17 09:45:17;;;;;;;8.07;2.53;;;;;;;;;;4998488;28;20033;-63
2021/08/17 09:47:53;;;;;;;13.18;3.10;;;;;;;;;;4999388;28;20507;-62
2021/08/17 09:50:26;;;;;;;24.60;3.78;;;;;;;;;;4997273;28;20370;-62
2021/08/17 09:53:18;;;;;;;8.90;3.60;;;;;;;;;;5002873;28;20018;-63
2021/08/17 09:55:50;;;;;;;5.28;2.70;;;;;;;;;;4994618;28;20370;-63
2021/08/17 09:58:31;;;;;;;17.35;2.80;;;;;;;;;;4998399;28;20038;-63
2021/08/17 10:00:59;;;;;;;12.70;3.65;;;;;;;;;;4996883;28;20030;-63
2021/08/17 10:03:27;;;;;;;8.48;2.50;;;;;;;;;;4996754;28;20117;-62
2021/08/17 10:05:53;;;;;;;10.00;3.13;;;;;;;;;;5000922;28;20026;-63
2021/08/17 10:08:21;;;;;;;8.60;3.35;;;;;;;;;;4997366;28;20459;-63
2021/08/17 10:10:49;;;;;;;5.22;2.92;;;;;;;;;;4995379;28;20087;-62
2021/08/17 10:13:17;;;;;;;14.23;3.30;;;;;;;;;;4998778;28;20531;-63
2021/08/17 10:15:44;;;;;;;9.18;2.72;;;;;;;;;;4996876;28;20029;-63
2021/08/17 10:18:12;;;;;;;9.70;2.92;;;;;;;;;;4997550;28;20117;-63
2021/08/17 10:20:41;;;;;;;11.02;3.15;;;;;;;;;;4999305;28;20026;-63
2021/08/17 10:23:08;;;;;;;10.55;3.08;;;;;;;;;;4997596;28;20144;-63
2021/08/17 10:25:44;;;;;;;9.43;3.03;;;;;;;;;;5000697;28;20065;-63
2021/08/17 10:28:22;;;;;;;7.22;2.83;;;;;;;;;;4996663;28;20034;-62
2021/08/17 10:30:48;;;;;;;12.55;3.42;;;;;;;;;;4996119;28;20045;-63
2021/08/17 10:33:38;;;;;;;10.20;2.97;;;;;;;;;;4996139;28;20034;-63
2021/08/17 10:36:04;;;;;;;12.65;3.15;;;;;;;;;;4995858;28;20074;-63
2021/08/17 10:38:29;;;;;;;17.92;4.10;;;;;;;;;;5000932;28;20099;-65
2021/08/17 10:40:54;;;;;;;18.38;3.42;;;;;;;;;;4995575;28;20030;-63
2021/08/17 10:43:45;;;;;;;12.77;3.20;;;;;;;;;;4996772;28;20026;-63
2021/08/17 10:46:13;;;;;;;12.35;3.80;;;;;;;;;;4993869;28;20093;-63
2021/08/17 10:48:45;;;;;;;13.77;3.20;;;;;;;;;;4998106;28;20034;-63
2021/08/17 10:51:20;;;;;;;12.45;3.03;;;;;;;;;;4994647;28;20080;-63
2021/08/17 10:54:12;;;;;;;6.93;2.50;;;;;;;;;;4992703;28;20022;-63
2021/08/17 10:56:39;;;;;;;18.08;3.10;;;;;;;;;;5000046;28;20046;-63
2021/08/17 10:59:05;;;;;;;8.07;2.40;;;;;;;;;;5005537;28;20485;-63
2021/08/17 11:01:30;;;;;;;8.70;2.88;;;;;;;;;;4993399;28;20120;-63
2021/08/17 11:04:06;;;;;;;8.38;2.90;;;;;;;;;;5003625;28;20536;-65
2021/08/17 11:06:55;;;;;;;25.80;3.38;;;;;;;;;;4988114;28;20097;-64
2021/08/17 11:09:35;;;;;;;13.48;2.65;;;;;;;;;;4995017;28;20040;-63
2021/08/17 11:12:03;;;;;;;7.20;3.00;;;;;;;;;;5003603;28;20247;-63
2021/08/17 11:14:40;;;;;;;7.20;2.38;;;;;;;;;;5000127;28;20044;-63
2021/08/17 11:17:11;;;;;;;9.02;2.70;;;;;;;;;;4997488;28;20524;-63
2021/08/17 11:19:49;;;;;;;10.32;2.63;;;;;;;;;;4991798;28;20041;-64
2021/08/17 11:22:17;;;;;;;5.53;2.50;;;;;;;;;;4996472;28;20046;-63
2021/08/17 11:24:51;;;;;;;4.53;2.17;;;;;;;;;;4994469;28;20053;-63
2021/08/17 11:27:21;;;;;;;4.13;2.17;;;;;;;;;;4995837;28;20415;-63
2021/08/17 11:29:47;;;;;;;12.70;2.42;;;;;;;;;;4999632;28;20152;-63
2021/08/17 11:32:31;;;;;;;11.90;2.80;;;;;;;;;;4994546;28;20433;-62
2021/08/17 11:35:02;;;;;;;6.32;2.33;;;;;;;;;;4995793;28;20053;-63
2021/08/17 11:37:29;;;;;;;6.47;2.80;;;;;;;;;;4998821;28;20034;-63
2021/08/17 11:39:57;;;;;;;11.27;2.47;;;;;;;;;;4996381;28;20040;-62
2021/08/17 11:42:26;;;;;;;4.32;1.88;;;;;;;;;;4994960;28;20034;-63
2021/08/17 11:44:55;;;;;;;9.90;2.88;;;;;;;;;;4998142;28;20088;-62
2021/08/17 11:47:22;;;;;;;6.70;2.55;;;;;;;;;;4994482;28;20519;-63
2021/08/17 11:49:53;;;;;;;11.23;2.72;;;;;;;;;;4995281;28;20080;-62
2021/08/17 11:52:21;;;;;;;5.20;1.83;;;;;;;;;;5000586;28;20551;-63
2021/08/17 11:55:03;;;;;;;5.97;2.15;;;;;;;;;;4991650;28;20042;-60
2021/08/17 11:57:34;;;;;;;8.25;1.92;;;;;;;;;;4997903;28;20030;-59
2021/08/17 12:00:09;;;;;;;6.03;1.75;;;;;;;;;;4999415;28;20059;-64
2021/08/17 12:02:36;;;;;;;14.05;2.80;;;;;;;;;;5002323;28;20183;-63
2021/08/17 12:05:09;;;;;;;13.75;2.58;;;;;;;;;;4988521;28;20037;-64
2021/08/17 12:07:35;;;;;;;36.00;3.45;;;;;;;;;;5002041;28;20034;-63
2021/08/17 12:10:04;;;;;;;15.90;2.40;;;;;;;;;;4970683;28;20560;-62
2021/08/17 12:13:11;;;;;;;11.25;2.25;;;;;;;;;;4997362;28;20034;-62
2021/08/17 12:15:47;;;;;;;16.20;3.10;;;;;;;;;;5000125;28;20582;-63
2021/08/17 12:18:19;;;;;;;44.30;3.00;;;;;;;;;;4995200;28;20400;-63
2021/08/17 12:21:00;;;;;;;58.67;3.67;;;;;;;;;;4997726;28;20085;-63
2021/08/17 12:23:32;;;;;;;5.32;2.10;;;;;;;;;;5001207;28;20495;-63
2021/08/17 12:26:26;;;;;;;4.43;1.95;;;;;;;;;;4984794;28;20092;-65
2021/08/17 12:28:54;;;;;;;5.90;1.90;;;;;;;;;;5002436;28;20079;-63
2021/08/17 12:31:26;;;;;;;4.50;2.28;;;;;;;;;;4985776;28;20220;-65
2021/08/17 12:34:00;;;;;;;7.68;2.20;;;;;;;;;;5000189;28;20045;-63
2021/08/17 12:36:46;;;;;;;9.38;2.22;;;;;;;;;;4997122;28;20026;-66
2021/08/17 12:39:22;;;;;;;3.67;2.40;;;;;;;;;;5004048;28;20033;-63
2021/08/17 12:41:50;;;;;;;7.32;2.30;;;;;;;;;;5001207;28;20029;-61
2021/08/17 12:44:24;;;;;;;10.38;2.30;;;;;;;;;;5002699;28;20371;-63
2021/08/17 12:47:11;;;;;;;7.68;2.50;;;;;;;;;;4999322;28;20061;-62
2021/08/17 12:49:59;;;;;;;4.50;2.15;;;;;;;;;;5001418;28;20112;-62
2021/08/17 12:52:34;;;;;;;10.00;3.03;;;;;;;;;;4997974;28;20400;-62
2021/08/17 12:55:06;;;;;;;8.02;2.17;;;;;;;;;;5003519;28;20021;-62
2021/08/17 12:57:35;;;;;;;7.90;4.50;;;;;;;;;;4998057;28;20305;-62
2021/08/17 13:00:02;;;;;;;7.75;3.78;;;;;;;;;;4984491;28;20289;-62
2021/08/17 13:02:28;;;;;;;12.80;5.28;;;;;;;;;;5000912;28;20052;-62
2021/08/17 13:04:54;;;;;;;5.50;3.20;;;;;;;;;;5002106;28;20029;-62
2021/08/17 13:07:19;;;;;;;10.90;3.47;;;;;;;;;;4988998;28;20038;-62
2021/08/17 13:09:45;;;;;;;6.45;3.50;;;;;;;;;;5003955;28;20038;-62
2021/08/17 13:12:11;;;;;;;5.00;3.20;;;;;;;;;;4997839;28;20046;-62
2021/08/17 13:14:37;;;;;;;5.28;3.10;;;;;;;;;;4994799;28;20035;-62
2021/08/17 13:17:03;;;;;;;6.47;2.90;;;;;;;;;;4991046;28;20088;-62
2021/08/17 13:19:29;;;;;;;2.80;2.08;;;;;;;;;;5001586;28;20030;-62
2021/08/17 13:21:55;;;;;;;5.88;2.92;;;;;;;;;;4995558;28;20029;-61
2021/08/17 13:24:20;;;;;;;4.97;3.42;;;;;;;;;;5003203;28;20041;-63
2021/08/17 13:26:47;;;;;;;8.10;4.10;;;;;;;;;;4988336;28;20057;-62
2021/08/17 13:29:13;;;;;;;12.60;4.03;;;;;;;;;;5001314;28;20018;-62
2021/08/17 13:31:39;;;;;;;6.10;3.85;;;;;;;;;;4995144;28;20128;-62
2021/08/17 13:34:05;;;;;;;7.25;3.60;;;;;;;;;;4995179;28;20026;-62
2021/08/17 13:36:30;;;;;;;6.25;4.05;;;;;;;;;;5001440;28;20123;-62
2021/08/17 13:38:56;;;;;;;7.45;4.15;;;;;;;;;;5000259;28;20114;-61
2021/08/17 13:41:21;;;;;;;6.68;4.20;;;;;;;;;;4995392;28;20039;-62
2021/08/17 13:43:47;;;;;;;3.03;1.10;;;;;;;;;;4994014;28;20149;-61
2021/08/17 13:46:12;;;;;;;2.38;1.20;;;;;;;;;;4998016;28;20030;-61
2021/08/17 13:48:38;;;;;;;2.38;0.85;;;;;;;;;;4997862;28;20144;-60
2021/08/17 13:51:04;;;;;;;1.90;1.15;;;;;;;;;;4996040;28;20034;-61
2021/08/17 13:53:29;;;;;;;2.35;1.58;;;;;;;;;;4997733;28;20025;-61
2021/08/17 13:55:55;;;;;;;4.30;2.38;;;;;;;;;;4987895;28;20049;-61
2021/08/17 13:58:21;;;;;;;2.80;1.70;;;;;;;;;;5003011;28;20509;-61
2021/08/17 14:00:47;;;;;;;3.55;1.67;;;;;;;;;;5002804;28;20121;-61
2021/08/17 14:03:13;;;;;;;2.63;1.42;;;;;;;;;;4995045;28;20340;-61
2021/08/17 14:05:39;;;;;;;5.45;1.73;;;;;;;;;;5001837;28;20462;-61
2021/08/17 14:08:04;;;;;;;5.05;1.50;;;;;;;;;;4999414;28;20026;-62
2021/08/17 14:10:31;;;;;;;1.58;0.90;;;;;;;;;;4998668;28;20034;-62
2021/08/17 14:12:58;;;;;;;2.90;1.70;;;;;;;;;;5002690;28;20042;-61
2021/08/17 14:15:25;;;;;;;2.05;1.85;;;;;;;;;;4997553;28;20022;-61
2021/08/17 14:17:50;;;;;;;2.28;1.50;;;;;;;;;;5000973;28;20037;-60
2021/08/17 14:20:16;;;;;;;2.03;1.20;;;;;;;;;;4999297;28;20389;-61
2021/08/17 14:22:41;;;;;;;1.83;1.10;;;;;;;;;;4987721;28;20424;-60
2021/08/17 14:25:07;;;;;;;5.07;1.75;;;;;;;;;;5003271;28;20034;-60
2021/08/17 14:27:33;;;;;;;4.35;1.85;;;;;;;;;;4993082;28;20030;-60
2021/08/17 14:29:59;;;;;;;2.15;1.58;;;;;;;;;;5002230;28;20029;-61
2021/08/17 14:32:24;;;;;;;3.67;2.33;;;;;;;;;;4998890;28;20674;-61
2021/08/17 14:34:50;;;;;;;1.48;1.13;;;;;;;;;;4996748;28;20109;-61
2021/08/17 14:37:15;;;;;;;1.50;0.80;;;;;;;;;;5005423;28;20045;-61
2021/08/17 14:39:41;;;;;;;0.90;0.90;;;;;;;;;;4995970;28;20489;-61